Time;durP1;ratioP1;P1;durP2;ratioP2;P2;SDS_P1;SDS_P2;PMS_P1;PMS_P2;Temp;Humidity;BMP_temperature;BMP_pressure;BME280_temperature;BME280_humidity;BME280_pressure;Samples;Min_cycle;Max_cycle;Signal;HPM_P1;HPM_P2
2023/05/10 00:01:13;;;;;;;;;;;;;;;24.95;21.00;98428.22;5048380;28;19956;-83
2023/05/10 00:03:40;;;;;;;;;;;;;;;25.06;20.58;98426.78;5087279;28;19927;-83
2023/05/10 00:06:06;;;;;;;;;;;;;;;25.04;20.45;98420.75;5062429;28;19916;-83
2023/05/10 00:08:32;;;;;;;;;;;;;;;24.90;20.82;98423.84;5093795;28;19951;-83
2023/05/10 00:10:58;;;;;;;;;;;;;;;24.84;20.93;98414.34;5073482;28;19920;-82
2023/05/10 00:13:24;;;;;;;;;;;;;;;24.88;20.95;98419.91;5070697;28;19927;-83
2023/05/10 00:15:50;;;;;;;;;;;;;;;24.90;20.58;98423.09;5077215;28;19928;-83
2023/05/10 00:18:16;;;;;;;;;;;;;;;24.82;20.70;98416.00;5072396;28;19946;-83
2023/05/10 00:20:42;;;;;;;;;;;;;;;24.74;20.74;98416.13;5056013;28;19921;-83
2023/05/10 00:23:08;;;;;;;;;;;;;;;24.77;20.59;98413.69;5064379;28;19943;-83
2023/05/10 00:25:34;;;;;;;;;;;;;;;24.69;20.81;98418.66;5062606;28;19927;-83
2023/05/10 00:28:01;;;;;;;;;;;;;;;24.70;20.82;98420.22;5060647;28;20321;-83
2023/05/10 00:30:27;;;;;;;;;;;;;;;24.72;20.82;98420.56;5074594;28;20323;-83
2023/05/10 00:32:53;;;;;;;;;;;;;;;24.79;21.00;98422.47;5086382;28;20375;-83
2023/05/10 00:35:19;;;;;;;;;;;;;;;24.70;20.67;98417.41;5085756;28;20376;-83
2023/05/10 00:37:45;;;;;;;;;;;;;;;24.22;21.59;98417.91;5093501;28;19927;-83
2023/05/10 00:40:11;;;;;;;;;;;;;;;23.46;22.44;98432.66;5084517;28;19925;-83
2023/05/10 00:42:38;;;;;;;;;;;;;;;22.46;24.00;98423.00;5079400;28;20491;-83
2023/05/10 00:45:04;;;;;;;;;;;;;;;22.37;24.05;98426.28;5077108;28;19928;-83
2023/05/10 00:47:31;;;;;;;;;;;;;;;22.18;23.86;98424.06;5060435;28;19931;-83
2023/05/10 00:49:57;;;;;;;;;;;;;;;23.08;23.06;98429.13;5095716;28;19920;-83
2023/05/10 00:52:23;;;;;;;;;;;;;;;23.75;21.73;98414.22;5079899;28;19920;-82
2023/05/10 00:54:51;;;;;;;;;;;;;;;23.92;21.55;98412.38;5093297;28;19943;-83
2023/05/10 00:57:17;;;;;;;;;;;;;;;23.97;21.24;98415.47;5070786;28;19923;-83
2023/05/10 00:59:43;;;;;;;;;;;;;;;24.14;21.21;98410.00;5048277;28;20433;-83
2023/05/10 01:02:09;;;;;;;;;;;;;;;23.97;21.00;98409.84;5075382;28;19924;-83
2023/05/10 01:04:36;;;;;;;;;;;;;;;23.56;21.74;98409.31;5066031;28;20065;-83
2023/05/10 01:07:02;;;;;;;;;;;;;;;23.26;22.29;98414.91;5068498;28;19956;-83
2023/05/10 01:09:28;;;;;;;;;;;;;;;23.12;22.31;98412.28;5085729;28;20371;-83
2023/05/10 01:11:55;;;;;;;;;;;;;;;23.23;22.31;98410.94;5093455;28;22263;-83
2023/05/10 01:14:21;;;;;;;;;;;;;;;23.49;21.99;98406.59;5079731;28;19962;-83
2023/05/10 01:16:48;;;;;;;;;;;;;;;22.74;23.05;98405.13;5078258;28;19969;-83
2023/05/10 01:19:19;;;;;;;;;;;;;;;20.94;25.18;98400.84;5064769;28;19927;-83
2023/05/10 01:21:48;;;;;;;;;;;;;;;20.62;25.81;98400.97;5076035;28;20070;-83
2023/05/10 01:24:23;;;;;;;;;;;;;;;20.53;26.03;98400.59;5069057;28;19920;-83
2023/05/10 01:26:58;;;;;;;;;;;;;;;20.04;26.67;98407.03;5065239;28;19963;-83
2023/05/10 01:29:29;;;;;;;;;;;;;;;20.98;25.56;98401.66;5072843;28;20003;-83
2023/05/10 01:31:58;;;;;;;;;;;;;;;20.99;25.45;98400.44;5072979;28;20660;-83
2023/05/10 01:34:28;;;;;;;;;;;;;;;21.35;24.98;98396.31;5071210;28;19927;-83
2023/05/10 01:36:54;;;;;;;;;;;;;;;21.63;24.54;98392.53;5072465;28;19942;-83
2023/05/10 01:39:23;;;;;;;;;;;;;;;21.84;24.32;98395.97;5066089;28;20003;-83
2023/05/10 01:42:02;;;;;;;;;;;;;;;22.55;23.28;98395.31;5067958;28;19924;-83
2023/05/10 01:44:38;;;;;;;;;;;;;;;22.50;23.25;98387.38;5067995;28;19920;-83
2023/05/10 01:47:09;;;;;;;;;;;;;;;21.40;24.65;98386.69;5070965;28;19928;-83
2023/05/10 01:49:44;;;;;;;;;;;;;;;21.33;24.81;98391.09;5065927;28;19920;-83
2023/05/10 01:52:12;;;;;;;;;;;;;;;22.24;23.62;98388.06;5068044;28;20288;-83
2023/05/10 01:54:41;;;;;;;;;;;;;;;22.21;23.59;98386.09;5071313;28;19920;-82
2023/05/10 01:57:09;;;;;;;;;;;;;;;20.29;26.57;98388.31;5066730;28;19920;-83
2023/05/10 01:59:40;;;;;;;;;;;;;;;20.97;25.37;98384.09;5068716;28;19924;-83
2023/05/10 02:02:07;;;;;;;;;;;;;;;20.56;26.17;98381.06;5070170;28;20299;-83
2023/05/10 02:04:35;;;;;;;;;;;;;;;21.45;24.64;98383.47;5069886;28;20421;-83
2023/05/10 02:07:01;;;;;;;;;;;;;;;21.36;25.21;98378.31;5068166;28;20012;-83
2023/05/10 02:09:29;;;;;;;;;;;;;;;21.81;24.31;98374.41;5069814;28;19935;-83
2023/05/10 02:11:58;;;;;;;;;;;;;;;21.67;24.43;98370.94;5074543;28;19921;-83
2023/05/10 02:14:26;;;;;;;;;;;;;;;21.16;25.20;98364.09;5051343;28;19928;-83
2023/05/10 02:16:53;;;;;;;;;;;;;;;21.87;24.21;98372.00;5068827;28;20017;-83
2023/05/10 02:19:21;;;;;;;;;;;;;;;22.63;23.11;98371.69;5068332;28;19931;-83
2023/05/10 02:21:48;;;;;;;;;;;;;;;23.01;22.74;98361.22;5053482;28;19920;-83
2023/05/10 02:24:15;;;;;;;;;;;;;;;22.80;22.89;98365.06;5069347;28;19920;-83
2023/05/10 02:26:42;;;;;;;;;;;;;;;22.93;22.65;98362.50;5051843;28;19921;-83
2023/05/10 02:29:09;;;;;;;;;;;;;;;23.29;22.15;98355.22;5074114;28;19928;-83
2023/05/10 02:31:35;;;;;;;;;;;;;;;23.19;22.36;98358.97;5069326;28;19920;-83
2023/05/10 02:34:02;;;;;;;;;;;;;;;22.79;22.86;98354.28;5069293;28;19931;-83
2023/05/10 02:36:29;;;;;;;;;;;;;;;23.26;22.32;98356.88;5072342;28;19964;-83
2023/05/10 02:38:55;;;;;;;;;;;;;;;23.56;21.92;98346.84;5072715;28;19927;-83
2023/05/10 02:41:22;;;;;;;;;;;;;;;23.92;21.64;98351.44;5073904;28;20342;-83
2023/05/10 02:43:51;;;;;;;;;;;;;;;23.36;22.27;98352.34;5071395;28;19924;-83
2023/05/10 02:46:17;;;;;;;;;;;;;;;22.82;22.96;98362.66;5072979;28;19925;-83
2023/05/10 02:48:43;;;;;;;;;;;;;;;22.59;23.52;98362.50;5073387;28;19966;-83
2023/05/10 02:51:12;;;;;;;;;;;;;;;22.50;23.72;98362.19;5081018;28;19977;-83
2023/05/10 02:53:40;;;;;;;;;;;;;;;22.58;23.65;98356.09;5068688;28;20265;-84
2023/05/10 02:56:13;;;;;;;;;;;;;;;22.73;23.45;98359.56;5062991;28;19928;-84
2023/05/10 02:58:39;;;;;;;;;;;;;;;22.59;23.52;98351.31;5062256;28;19924;-83
2023/05/10 03:01:07;;;;;;;;;;;;;;;22.36;23.49;98357.53;5073782;28;20311;-83
2023/05/10 03:03:33;;;;;;;;;;;;;;;22.07;23.77;98359.06;5071925;28;19921;-84
2023/05/10 03:05:59;;;;;;;;;;;;;;;22.09;23.80;98362.22;5073446;28;19931;-83
2023/05/10 03:08:25;;;;;;;;;;;;;;;21.68;24.51;98361.34;5073659;28;19928;-83
2023/05/10 03:11:12;;;;;;;;;;;;;;;21.97;24.12;98365.53;5075975;28;19936;-83
2023/05/10 03:13:42;;;;;;;;;;;;;;;21.63;24.43;98362.59;5053605;28;19920;-83
2023/05/10 03:16:12;;;;;;;;;;;;;;;21.67;24.59;98356.97;5070406;28;20367;-83
2023/05/10 03:18:50;;;;;;;;;;;;;;;21.77;24.49;98367.28;5073848;28;19928;-83
2023/05/10 03:21:17;;;;;;;;;;;;;;;21.72;24.63;98364.91;5084010;28;19920;-83
2023/05/10 03:23:46;;;;;;;;;;;;;;;21.90;24.29;98360.78;5082147;28;19927;-83
2023/05/10 03:26:15;;;;;;;;;;;;;;;22.03;24.20;98363.88;5071065;28;19999;-83
2023/05/10 03:28:41;;;;;;;;;;;;;;;21.95;24.49;98365.94;5071364;28;19920;-83
2023/05/10 03:31:08;;;;;;;;;;;;;;;21.77;24.63;98361.69;5073154;28;19916;-83
2023/05/10 03:33:34;;;;;;;;;;;;;;;22.06;24.41;98368.63;5072740;28;20392;-83
2023/05/10 03:36:00;;;;;;;;;;;;;;;22.06;24.85;98359.44;5068469;28;20029;-83
2023/05/10 03:38:26;;;;;;;;;;;;;;;22.39;24.60;98365.13;5064596;28;19929;-83
2023/05/10 03:40:52;;;;;;;;;;;;;;;23.27;23.10;98352.03;5069312;28;19928;-83
2023/05/10 03:43:18;;;;;;;;;;;;;;;22.71;24.40;98359.16;5073760;28;19927;-83
2023/05/10 03:45:44;;;;;;;;;;;;;;;22.91;24.27;98357.34;5073766;28;20288;-84
2023/05/10 03:48:10;;;;;;;;;;;;;;;23.31;24.16;98352.78;5072343;28;19916;-83
2023/05/10 03:50:36;;;;;;;;;;;;;;;23.63;23.78;98349.53;5073452;28;19916;-83
2023/05/10 03:53:02;;;;;;;;;;;;;;;23.87;23.77;98345.53;5069412;28;19916;-84
2023/05/10 03:55:29;;;;;;;;;;;;;;;24.01;24.55;98346.06;5052320;28;19924;-83
2023/05/10 03:57:55;;;;;;;;;;;;;;;24.60;24.19;98345.41;5070333;28;20019;-83
2023/05/10 04:00:21;;;;;;;;;;;;;;;25.07;24.42;98351.69;5074652;28;20376;-84
2023/05/10 04:02:47;;;;;;;;;;;;;;;25.63;23.71;98344.78;5072152;28;19921;-84
2023/05/10 04:05:13;;;;;;;;;;;;;;;25.82;23.71;98345.94;5072913;28;20008;-84
2023/05/10 04:07:39;;;;;;;;;;;;;;;25.49;23.59;98341.53;5076808;28;19931;-84
2023/05/10 04:10:06;;;;;;;;;;;;;;;25.28;24.32;98343.56;5068603;28;20402;-84
2023/05/10 04:12:32;;;;;;;;;;;;;;;25.56;24.04;98346.97;5070974;28;19956;-84
2023/05/10 04:14:58;;;;;;;;;;;;;;;25.48;24.65;98349.19;5058484;28;20013;-87
2023/05/10 04:17:24;;;;;;;;;;;;;;;25.79;23.91;98353.25;5068826;28;19928;-85
2023/05/10 04:19:52;;;;;;;;;;;;;;;26.11;23.71;98348.88;5065354;28;19929;-84
2023/05/10 04:22:18;;;;;;;;;;;;;;;26.18;24.50;98348.69;5062037;28;19920;-84
2023/05/10 04:24:44;;;;;;;;;;;;;;;26.40;22.08;98344.84;5065290;28;19921;-84
2023/05/10 04:27:11;;;;;;;;;;;;;;;26.04;26.00;98356.22;5071953;28;20002;-85
2023/05/10 04:29:38;;;;;;;;;;;;;;;26.41;25.13;98352.06;5065799;28;20011;-85
2023/05/10 04:32:04;;;;;;;;;;;;;;;26.94;23.21;98355.44;5059579;28;19928;-84
2023/05/10 04:34:30;;;;;;;;;;;;;;;27.03;24.05;98361.22;5063070;28;19966;-85
2023/05/10 04:36:56;;;;;;;;;;;;;;;26.90;23.11;98360.41;5062925;28;19924;-84
2023/05/10 04:39:22;;;;;;;;;;;;;;;26.66;22.77;98349.34;5047619;28;20346;-85
2023/05/10 04:41:48;;;;;;;;;;;;;;;26.81;22.75;98358.22;5053823;28;19920;-84
2023/05/10 04:44:14;;;;;;;;;;;;;;;26.87;23.64;98359.25;5060657;28;19971;-85
2023/05/10 04:46:40;;;;;;;;;;;;;;;27.05;25.49;98355.94;5058636;28;20283;-85
2023/05/10 04:49:06;;;;;;;;;;;;;;;27.03;22.52;98355.56;5067214;28;19921;-84
2023/05/10 04:51:32;;;;;;;;;;;;;;;27.22;22.31;98358.22;5065635;28;19971;-85
2023/05/10 04:53:58;;;;;;;;;;;;;;;26.95;25.61;98357.03;5064460;28;19939;-84
2023/05/10 04:56:24;;;;;;;;;;;;;;;27.16;22.51;98350.75;5056961;28;20295;-84
2023/05/10 04:58:50;;;;;;;;;;;;;;;27.27;23.27;98357.66;5060421;28;19970;-85
2023/05/10 05:01:16;;;;;;;;;;;;;;;27.04;23.07;98349.50;5066686;28;19927;-87
2023/05/10 05:03:42;;;;;;;;;;;;;;;27.46;23.81;98349.47;5064704;28;19924;-86
2023/05/10 05:06:08;;;;;;;;;;;;;;;27.07;25.30;98353.47;5068291;28;20472;-86
2023/05/10 05:08:34;;;;;;;;;;;;;;;27.14;23.77;98353.25;5070591;28;19916;-86
2023/05/10 05:11:00;;;;;;;;;;;;;;;27.50;24.30;98353.75;5071096;28;19917;-86
2023/05/10 05:13:26;;;;;;;;;;;;;;;27.14;24.32;98342.75;5072228;28;19916;-85
2023/05/10 05:15:53;;;;;;;;;;;;;;;27.43;25.52;98342.69;5072816;28;19935;-85
2023/05/10 05:18:19;;;;;;;;;;;;;;;27.33;23.47;98344.56;5076114;28;19927;-85
2023/05/10 05:20:45;;;;;;;;;;;;;;;27.28;23.91;98345.13;5076011;28;20355;-86
2023/05/10 05:23:11;;;;;;;;;;;;;;;27.71;25.04;98341.78;5075465;28;19960;-86
2023/05/10 05:25:37;;;;;;;;;;;;;;;28.18;23.20;98341.06;5076351;28;19924;-86
2023/05/10 05:28:03;;;;;;;;;;;;;;;27.74;25.19;98345.75;5076522;28;19917;-86
2023/05/10 05:30:29;;;;;;;;;;;;;;;27.72;25.92;98343.38;5076218;28;19920;-86
2023/05/10 05:32:55;;;;;;;;;;;;;;;28.31;25.74;98344.66;5076097;28;19939;-86
2023/05/10 05:35:21;;;;;;;;;;;;;;;28.09;23.50;98338.94;5076471;28;19912;-85
2023/05/10 05:37:47;;;;;;;;;;;;;;;28.06;22.84;98342.66;5076327;28;19916;-85
2023/05/10 05:40:14;;;;;;;;;;;;;;;28.32;23.18;98332.88;5075966;28;19932;-86
2023/05/10 05:42:40;;;;;;;;;;;;;;;27.34;25.02;98351.00;5076421;28;19916;-85
2023/05/10 05:45:06;;;;;;;;;;;;;;;27.72;24.20;98334.91;5075777;28;19979;-86
2023/05/10 05:47:32;;;;;;;;;;;;;;;27.58;24.46;98343.03;5075738;28;19920;-85
2023/05/10 05:49:58;;;;;;;;;;;;;;;27.43;24.50;98342.69;5073748;28;19970;-85
2023/05/10 05:52:24;;;;;;;;;;;;;;;27.20;24.04;98340.97;5074397;28;19920;-85
2023/05/10 05:54:50;;;;;;;;;;;;;;;26.79;24.40;98334.56;5079303;28;19916;-85
2023/05/10 05:57:16;;;;;;;;;;;;;;;27.07;23.24;98331.69;5081208;28;19920;-85
2023/05/10 05:59:43;;;;;;;;;;;;;;;27.59;24.20;98334.13;5095516;28;19916;-85
2023/05/10 06:02:10;;;;;;;;;;;;;;;27.69;24.85;98337.84;5096003;28;20314;-86
2023/05/10 06:04:36;;;;;;;;;;;;;;;28.18;21.94;98335.41;5086801;28;20530;-85
2023/05/10 06:07:02;;;;;;;;;;;;;;;27.68;21.22;98345.50;5055575;28;19948;-85
2023/05/10 06:09:28;;;;;;;;;;;;;;;27.98;21.69;98339.25;5057254;28;19970;-85
2023/05/10 06:11:54;;;;;;;;;;;;;;;27.42;22.23;98354.44;5081370;28;19996;-85
2023/05/10 06:14:20;;;;;;;;;;;;;;;28.37;21.55;98335.13;5085188;28;19928;-85
2023/05/10 06:16:46;;;;;;;;;;;;;;;27.95;21.81;98342.22;5076064;28;20015;-85
2023/05/10 06:19:12;;;;;;;;;;;;;;;28.25;21.72;98341.59;5074213;28;19970;-85
2023/05/10 06:21:38;;;;;;;;;;;;;;;28.78;21.42;98336.13;5075619;28;19916;-85
2023/05/10 06:24:06;;;;;;;;;;;;;;;28.77;21.88;98343.81;5075540;28;19923;-85
2023/05/10 06:26:32;;;;;;;;;;;;;;;29.21;22.98;98342.56;5075324;28;20295;-85
2023/05/10 06:28:58;;;;;;;;;;;;;;;29.58;20.38;98334.22;5083512;28;19947;-85
2023/05/10 06:31:25;;;;;;;;;;;;;;;29.39;22.15;98339.03;5074349;28;20256;-85
2023/05/10 06:33:51;;;;;;;;;;;;;;;29.75;21.98;98338.38;5075290;28;20254;-85
2023/05/10 06:36:17;;;;;;;;;;;;;;;29.10;24.12;98332.88;5086372;28;20011;-85
2023/05/10 06:38:43;;;;;;;;;;;;;;;28.90;21.44;98347.34;5056968;28;19971;-85
2023/05/10 06:41:09;;;;;;;;;;;;;;;29.15;23.04;98346.41;5075253;28;19917;-86
2023/05/10 06:43:35;;;;;;;;;;;;;;;29.70;22.80;98342.63;5074896;28;20007;-85
2023/05/10 06:46:01;;;;;;;;;;;;;;;30.13;23.04;98340.88;5074568;28;20407;-86
2023/05/10 06:48:27;;;;;;;;;;;;;;;30.35;21.33;98339.53;5074616;28;20464;-86
2023/05/10 06:50:53;;;;;;;;;;;;;;;30.48;21.74;98339.38;5074754;28;20372;-86
2023/05/10 06:53:19;;;;;;;;;;;;;;;30.84;20.50;98339.34;5074932;28;19927;-86
2023/05/10 06:55:45;;;;;;;;;;;;;;;30.43;21.42;98337.19;5056922;28;19912;-86
2023/05/10 06:58:11;;;;;;;;;;;;;;;30.29;21.07;98337.75;5074111;28;19921;-85
2023/05/10 07:00:40;;;;;;;;;;;;;;;29.28;21.46;98347.94;5074393;28;19919;-86
2023/05/10 07:03:06;;;;;;;;;;;;;;;29.49;23.49;98343.47;5074244;28;20375;-85
2023/05/10 07:05:32;;;;;;;;;;;;;;;30.00;21.75;98333.31;5071886;28;20335;-85
2023/05/10 07:07:58;;;;;;;;;;;;;;;30.15;20.22;98327.84;5074566;28;19913;-85
2023/05/10 07:10:24;;;;;;;;;;;;;;;30.18;20.15;98332.53;5074494;28;20007;-85
2023/05/10 07:12:50;;;;;;;;;;;;;;;30.06;21.96;98328.59;5081543;28;19920;-85
2023/05/10 07:15:16;;;;;;;;;;;;;;;30.19;22.10;98328.47;5094356;28;19924;-85
2023/05/10 07:17:42;;;;;;;;;;;;;;;30.09;20.23;98333.31;5094763;28;19999;-85
2023/05/10 07:20:09;;;;;;;;;;;;;;;30.11;20.71;98330.00;5094412;28;19916;-85
2023/05/10 07:22:35;;;;;;;;;;;;;;;29.90;22.18;98333.72;5083170;28;19916;-85
2023/05/10 07:25:01;;;;;;;;;;;;;;;29.88;21.08;98330.59;5074223;28;19923;-85
2023/05/10 07:27:27;;;;;;;;;;;;;;;29.05;22.75;98330.66;5073864;28;19980;-85
2023/05/10 07:29:53;;;;;;;;;;;;;;;29.71;21.57;98332.84;5090707;28;19927;-85
2023/05/10 07:32:19;;;;;;;;;;;;;;;27.35;27.91;98333.63;5094206;28;19916;-86
2023/05/10 07:34:45;;;;;;;;;;;;;;;26.85;24.88;98333.56;5076241;28;20386;-85
2023/05/10 07:37:11;;;;;;;;;;;;;;;27.31;24.54;98335.78;5085243;28;19920;-85
2023/05/10 07:39:37;;;;;;;;;;;;;;;26.92;28.09;98335.38;5081651;28;19916;-85
2023/05/10 07:42:03;;;;;;;;;;;;;;;27.95;24.72;98325.28;5073911;28;19978;-85
2023/05/10 07:44:29;;;;;;;;;;;;;;;27.87;25.32;98316.25;5077568;28;19920;-85
2023/05/10 07:46:55;;;;;;;;;;;;;;;28.75;24.53;98323.69;5085678;28;19947;-84
2023/05/10 07:49:23;;;;;;;;;;;;;;;28.90;21.36;98321.91;5036672;28;19916;-85
2023/05/10 07:51:50;;;;;;;;;;;;;;;28.87;21.92;98317.16;5053466;28;19920;-85
2023/05/10 07:54:16;;;;;;;;;;;;;;;27.34;27.18;98320.78;5053823;28;19916;-86
2023/05/10 07:56:46;;;;;;;;;;;;;;;25.91;27.90;98320.78;5064627;28;19916;-85
2023/05/10 07:59:16;;;;;;;;;;;;;;;27.22;22.37;98329.22;5073936;28;19923;-85
2023/05/10 08:01:43;;;;;;;;;;;;;;;28.93;22.08;98314.53;5073613;28;19916;-85
2023/05/10 08:04:09;;;;;;;;;;;;;;;29.11;22.99;98317.47;5072774;28;20008;-85
2023/05/10 08:06:35;;;;;;;;;;;;;;;28.18;21.85;98310.00;5064701;28;19920;-85
2023/05/10 08:09:01;;;;;;;;;;;;;;;27.58;21.61;98318.44;5074129;28;19982;-85
2023/05/10 08:11:29;;;;;;;;;;;;;;;27.56;22.75;98306.84;5072944;28;19917;-85
2023/05/10 08:13:55;;;;;;;;;;;;;;;28.78;21.19;98314.28;5073448;28;19917;-85
2023/05/10 08:16:21;;;;;;;;;;;;;;;28.55;21.76;98306.22;5073521;28;19925;-85
2023/05/10 08:18:48;;;;;;;;;;;;;;;27.55;22.41;98310.09;5073585;28;20376;-85
2023/05/10 08:21:15;;;;;;;;;;;;;;;27.38;22.32;98301.75;5073545;28;19917;-85
2023/05/10 08:23:43;;;;;;;;;;;;;;;28.42;20.32;98306.31;5073647;28;19916;-85
2023/05/10 08:26:09;;;;;;;;;;;;;;;27.58;22.21;98300.72;5055092;28;19917;-85
2023/05/10 08:28:35;;;;;;;;;;;;;;;27.74;20.84;98309.84;5073748;28;20003;-85
2023/05/10 08:31:01;;;;;;;;;;;;;;;28.98;21.54;98300.59;5072949;28;19971;-85
2023/05/10 08:33:27;;;;;;;;;;;;;;;29.26;19.42;98310.06;5055390;28;19924;-85
2023/05/10 08:35:53;;;;;;;;;;;;;;;28.68;22.29;98304.19;5073257;28;19920;-85
2023/05/10 08:38:19;;;;;;;;;;;;;;;28.36;20.63;98301.69;5073115;28;20416;-85
2023/05/10 08:40:47;;;;;;;;;;;;;;;29.30;19.95;98307.88;5073078;28;19916;-85
2023/05/10 08:43:15;;;;;;;;;;;;;;;29.26;19.38;98302.38;5073421;28;19923;-85
2023/05/10 08:45:42;;;;;;;;;;;;;;;29.34;19.86;98312.13;5072146;28;19931;-85
2023/05/10 08:48:11;;;;;;;;;;;;;;;29.55;20.60;98307.66;5067688;28;19917;-85
2023/05/10 08:50:38;;;;;;;;;;;;;;;29.67;19.12;98308.78;5073347;28;19963;-85
2023/05/10 08:53:05;;;;;;;;;;;;;;;28.45;19.52;98307.44;5059291;28;19917;-85
2023/05/10 08:55:33;;;;;;;;;;;;;;;27.65;20.55;98309.75;5077049;28;19917;-85
2023/05/10 08:57:59;;;;;;;;;;;;;;;28.34;22.82;98301.34;5077362;28;19916;-85
2023/05/10 09:00:26;;;;;;;;;;;;;;;26.03;24.54;98309.63;5079088;28;20392;-85
2023/05/10 09:02:53;;;;;;;;;;;;;;;26.14;23.06;98303.72;5077057;28;19957;-86
2023/05/10 09:05:19;;;;;;;;;;;;;;;25.65;26.03;98313.44;5077805;28;19932;-86
2023/05/10 09:07:45;;;;;;;;;;;;;;;26.68;24.43;98309.47;5076955;28;20019;-86
2023/05/10 09:10:13;;;;;;;;;;;;;;;26.59;23.23;98314.97;5075988;28;20008;-85
2023/05/10 09:12:39;;;;;;;;;;;;;;;26.91;23.33;98306.41;5077105;28;19958;-86
2023/05/10 09:15:06;;;;;;;;;;;;;;;27.79;21.12;98300.81;5076624;28;19921;-85
2023/05/10 09:17:33;;;;;;;;;;;;;;;27.48;20.95;98299.81;5076811;28;19924;-85
2023/05/10 09:20:00;;;;;;;;;;;;;;;27.25;23.56;98308.59;5076799;28;20370;-85
2023/05/10 09:22:26;;;;;;;;;;;;;;;27.62;19.07;98302.19;5076327;28;20320;-85
2023/05/10 09:25:07;;;;;;;;;;;;;;;27.82;21.40;98299.88;5076372;28;19921;-85
2023/05/10 09:27:34;;;;;;;;;;;;;;;27.33;20.14;98304.28;5076536;28;20299;-86
2023/05/10 09:30:00;;;;;;;;;;;;;;;28.11;19.13;98296.91;5058432;28;19920;-85
2023/05/10 09:32:43;;;;;;;;;;;;;;;28.72;21.67;98304.81;5076426;28;20474;-85
2023/05/10 09:35:14;;;;;;;;;;;;;;;29.91;18.58;98298.50;5075494;28;20225;-85
2023/05/10 09:37:41;;;;;;;;;;;;;;;28.59;20.46;98295.66;5072682;28;19947;-85
2023/05/10 09:40:10;;;;;;;;;;;;;;;27.99;23.61;98303.38;5076667;28;19999;-85
2023/05/10 09:42:36;;;;;;;;;;;;;;;27.89;23.81;98299.66;5076311;28;19932;-85
2023/05/10 09:45:06;;;;;;;;;;;;;;;27.36;22.58;98309.03;5070113;28;20331;-86
2023/05/10 09:47:34;;;;;;;;;;;;;;;28.53;21.43;98303.09;5055654;28;19925;-85
2023/05/10 09:50:04;;;;;;;;;;;;;;;29.12;21.40;98302.09;5071414;28;19925;-85
2023/05/10 09:52:31;;;;;;;;;;;;;;;29.53;21.08;98304.50;5055772;28;19921;-85
2023/05/10 09:54:57;;;;;;;;;;;;;;;30.33;20.04;98296.72;5061085;28;19916;-85
2023/05/10 09:57:23;;;;;;;;;;;;;;;31.00;19.07;98292.88;5076064;28;20387;-85
2023/05/10 09:59:50;;;;;;;;;;;;;;;31.30;18.67;98295.47;5075946;28;20353;-85
2023/05/10 10:02:16;;;;;;;;;;;;;;;29.81;19.07;98288.41;5075131;28;20014;-85
2023/05/10 10:04:43;;;;;;;;;;;;;;;30.21;20.45;98277.78;5053909;28;19924;-85
2023/05/10 10:07:09;;;;;;;;;;;;;;;30.96;18.26;98289.44;5072790;28;19939;-85
2023/05/10 10:09:35;;;;;;;;;;;;;;;28.66;23.29;98293.31;5075625;28;19920;-85
2023/05/10 10:12:01;;;;;;;;;;;;;;;28.04;24.15;98277.41;5069533;28;19960;-85
2023/05/10 10:14:30;;;;;;;;;;;;;;;28.41;20.52;98284.16;5075551;28;19963;-84
2023/05/10 10:17:00;;;;;;;;;;;;;;;29.09;20.97;98277.56;5075507;28;19916;-85
2023/05/10 10:19:26;;;;;;;;;;;;;;;30.41;19.48;98280.94;5075724;28;20345;-85
2023/05/10 10:21:52;;;;;;;;;;;;;;;30.84;20.71;98271.31;5075330;28;19924;-84
2023/05/10 10:24:18;;;;;;;;;;;;;;;31.48;18.74;98266.28;5086062;28;20253;-84
2023/05/10 10:26:45;;;;;;;;;;;;;;;31.82;17.90;98265.75;5095183;28;20446;-85
2023/05/10 10:29:11;;;;;;;;;;;;;;;28.64;23.33;98270.38;5087960;28;19984;-86
2023/05/10 10:31:50;;;;;;;;;;;;;;;27.54;24.93;98277.50;5075273;28;20367;-85
2023/05/10 10:34:27;;;;;;;;;;;;;;;27.86;23.30;98271.56;5075352;28;19916;-84
2023/05/10 10:36:54;;;;;;;;;;;;;;;28.73;22.06;98266.81;5075051;28;20379;-84
2023/05/10 10:39:21;;;;;;;;;;;;;;;27.83;24.29;98273.25;5075127;28;19966;-85
2023/05/10 10:41:54;;;;;;;;;;;;;;;27.71;23.85;98274.06;5075001;28;19913;-84
2023/05/10 10:44:26;;;;;;;;;;;;;;;27.61;25.87;98269.56;5064088;28;19921;-84
2023/05/10 10:46:58;;;;;;;;;;;;;;;28.94;19.50;98268.06;5066681;28;19985;-85
2023/05/10 10:49:24;;;;;;;;;;;;;;;28.72;20.12;98265.25;5074972;28;19924;-84
2023/05/10 10:52:08;;;;;;;;;;;;;;;29.73;19.14;98256.78;5074742;28;19966;-84
2023/05/10 10:54:35;;;;;;;;;;;;;;;28.35;24.52;98257.75;5074912;28;19940;-85
2023/05/10 10:57:14;;;;;;;;;;;;;;;27.73;19.88;98257.47;5074912;28;19963;-85
2023/05/10 10:59:46;;;;;;;;;;;;;;;27.09;22.76;98263.59;5074755;28;19920;-84
2023/05/10 11:02:31;;;;;;;;;;;;;;;29.11;21.45;98253.22;5077413;28;19916;-85
2023/05/10 11:04:57;;;;;;;;;;;;;;;28.96;24.23;98257.09;5080274;28;19927;-86
2023/05/10 11:07:23;;;;;;;;;;;;;;;29.56;22.25;98246.97;5088704;28;19916;-84
2023/05/10 11:09:49;;;;;;;;;;;;;;;30.69;19.41;98242.81;5074109;28;20035;-84
2023/05/10 11:12:15;;;;;;;;;;;;;;;30.78;18.03;98244.88;5074644;28;19972;-84
2023/05/10 11:14:41;;;;;;;;;;;;;;;29.31;22.71;98252.88;5074005;28;19916;-85
2023/05/10 11:17:23;;;;;;;;;;;;;;;30.29;19.61;98247.91;5074384;28;19963;-84
2023/05/10 11:20:06;;;;;;;;;;;;;;;31.43;18.87;98244.22;5080839;28;20304;-84
2023/05/10 11:22:48;;;;;;;;;;;;;;;30.69;17.70;98244.88;5074353;28;19917;-85
2023/05/10 11:25:14;;;;;;;;;;;;;;;31.03;21.25;98241.66;5074392;28;20368;-85
2023/05/10 11:27:41;;;;;;;;;;;;;;;31.17;17.57;98231.69;5074183;28;19928;-84
2023/05/10 11:30:09;;;;;;;;;;;;;;;29.31;21.90;98233.09;5074429;28;19920;-85
2023/05/10 11:32:38;;;;;;;;;;;;;;;29.16;22.00;98234.88;5083445;28;19963;-84
2023/05/10 11:35:08;;;;;;;;;;;;;;;28.57;23.24;98235.94;5093989;28;19920;-84
2023/05/10 11:37:34;;;;;;;;;;;;;;;29.80;19.97;98227.41;5079048;28;19916;-84
2023/05/10 11:40:00;;;;;;;;;;;;;;;29.63;20.02;98223.25;5074011;28;19917;-84
2023/05/10 11:42:30;;;;;;;;;;;;;;;30.44;18.73;98217.69;5068301;28;19917;-84
2023/05/10 11:44:56;;;;;;;;;;;;;;;30.70;22.05;98216.06;5053060;28;19967;-85
2023/05/10 11:47:22;;;;;;;;;;;;;;;29.09;22.79;98226.66;5053941;28;19931;-85
2023/05/10 11:49:48;;;;;;;;;;;;;;;28.29;23.04;98225.69;5053680;28;20368;-85
2023/05/10 11:52:14;;;;;;;;;;;;;;;28.29;23.54;98214.38;5053659;28;19924;-85
2023/05/10 11:54:53;;;;;;;;;;;;;;;29.45;20.35;98220.38;5064743;28;20358;-84
2023/05/10 11:57:20;;;;;;;;;;;;;;;30.06;19.23;98228.66;5073854;28;19917;-84
2023/05/10 11:59:46;;;;;;;;;;;;;;;30.90;18.48;98218.38;5073752;28;19978;-84
2023/05/10 12:02:15;;;;;;;;;;;;;;;31.88;19.58;98211.94;5072882;28;19928;-84
2023/05/10 12:04:41;;;;;;;;;;;;;;;29.98;20.94;98213.25;5076248;28;19966;-85
2023/05/10 12:07:07;;;;;;;;;;;;;;;28.52;23.25;98222.41;5093917;28;19916;-85
2023/05/10 12:09:33;;;;;;;;;;;;;;;29.11;19.40;98210.03;5074014;28;19932;-84
2023/05/10 12:12:00;;;;;;;;;;;;;;;30.26;18.69;98216.88;5070299;28;19925;-85
2023/05/10 12:14:27;;;;;;;;;;;;;;;30.52;20.17;98218.16;5072601;28;19960;-85
2023/05/10 12:16:56;;;;;;;;;;;;;;;29.42;19.87;98214.41;5093555;28;19924;-87
2023/05/10 12:19:22;;;;;;;;;;;;;;;29.54;21.26;98209.09;5072964;28;19932;-86
2023/05/10 12:21:48;;;;;;;;;;;;;;;30.77;18.57;98212.09;5069850;28;19929;-86
2023/05/10 12:24:17;;;;;;;;;;;;;;;30.08;22.12;98204.28;5071320;28;20398;-87
2023/05/10 12:26:45;;;;;;;;;;;;;;;29.69;20.79;98212.88;5093016;28;19916;-87
2023/05/10 12:29:12;;;;;;;;;;;;;;;30.62;21.99;98202.69;5059907;28;19919;-87
2023/05/10 12:31:53;;;;;;;;;;;;;;;30.03;18.89;98201.31;5087066;28;19974;-87
2023/05/10 12:34:26;;;;;;;;;;;;;;;28.77;22.03;98193.22;5075812;28;20447;-86
2023/05/10 12:36:52;;;;;;;;;;;;;;;27.96;22.22;98194.19;5082282;28;19916;-87
2023/05/10 12:39:18;;;;;;;;;;;;;;;30.22;19.90;98194.38;5070876;28;20011;-86
2023/05/10 12:41:44;;;;;;;;;;;;;;;30.99;19.57;98187.19;5060849;28;19960;-87
2023/05/10 12:44:10;;;;;;;;;;;;;;;31.53;19.71;98188.19;5060457;28;19929;-86
2023/05/10 12:46:37;;;;;;;;;;;;;;;31.93;18.67;98186.47;5071159;28;19920;-86
2023/05/10 12:49:03;;;;;;;;;;;;;;;32.62;19.11;98179.56;5072657;28;20062;-87